Time;durP1;ratioP1;P1;durP2;ratioP2;P2;SDS_P1;SDS_P2;PMS_P1;PMS_P2;Temp;Humidity;BMP_temperature;BMP_pressure;BME280_temperature;BME280_humidity;BME280_pressure;Samples;Min_cycle;Max_cycle;Signal;HPM_P1;HPM_P2
2023/02/26 00:02:10;;;;;;;1.80;0.50;;;;;;;1.68;67.07;96931.28;10374394;28;20466;-79
2023/02/26 00:07:31;;;;;;;1.65;0.70;;;;;;;1.58;67.63;96935.16;10374455;28;20124;-79
2023/02/26 00:12:52;;;;;;;3.10;0.90;;;;;;;1.57;67.05;96936.44;10374532;28;20053;-79
2023/02/26 00:18:14;;;;;;;0.80;0.63;;;;;;;1.56;67.45;96940.47;10374641;28;20142;-79
2023/02/26 00:23:35;;;;;;;1.27;0.70;;;;;;;1.52;67.51;96951.84;10387536;28;20091;-78
2023/02/26 00:28:56;;;;;;;0.85;0.50;;;;;;;1.43;68.79;96958.63;10373636;28;20164;-79
2023/02/26 00:34:18;;;;;;;0.90;0.40;;;;;;;1.36;67.77;96959.41;10387023;28;20037;-79
2023/02/26 00:39:45;;;;;;;0.75;0.30;;;;;;;1.37;67.84;96968.38;10373711;28;20046;-79
2023/02/26 00:45:07;;;;;;;1.50;0.40;;;;;;;1.41;68.21;96969.47;10387034;28;20504;-78
2023/02/26 00:50:29;;;;;;;1.00;0.32;;;;;;;1.47;67.67;96969.28;10373494;28;20045;-78
2023/02/26 00:55:50;;;;;;;1.08;0.30;;;;;;;1.46;68.32;96969.84;10386892;28;20046;-78
2023/02/26 01:01:11;;;;;;;0.80;0.40;;;;;;;1.45;67.73;96980.09;10386771;28;20052;-79
2023/02/26 01:06:33;;;;;;;1.17;0.45;;;;;;;1.41;68.33;96983.22;10373283;28;20042;-79
2023/02/26 01:11:55;;;;;;;0.50;0.35;;;;;;;1.43;68.63;96986.13;10373164;28;20041;-79
2023/02/26 01:18:03;;;;;;;0.60;0.40;;;;;;;1.41;69.08;97001.72;10367739;28;20045;-78
2023/02/26 01:23:26;;;;;;;0.77;0.40;;;;;;;1.41;68.50;97002.47;10379199;28;20049;-78
2023/02/26 01:28:47;;;;;;;0.80;0.40;;;;;;;1.37;69.22;97004.13;10380800;28;20037;-78
2023/02/26 01:34:20;;;;;;;0.63;0.30;;;;;;;1.34;68.29;97008.69;10380909;28;20041;-78
2023/02/26 01:40:05;;;;;;;0.90;0.40;;;;;;;1.39;68.44;97004.31;10394070;28;20053;-78
2023/02/26 01:45:31;;;;;;;0.63;0.40;;;;;;;1.34;68.55;97014.19;10394660;28;20042;-78
2023/02/26 01:50:54;;;;;;;0.77;0.40;;;;;;;1.35;68.40;97010.19;10380954;28;20395;-78
2023/02/26 01:56:16;;;;;;;0.75;0.30;;;;;;;1.29;68.38;97017.13;10393286;28;20423;-78
2023/02/26 02:01:38;;;;;;;0.35;0.20;;;;;;;1.30;68.30;97029.59;10379382;28;20483;-78
2023/02/26 02:06:59;;;;;;;0.80;0.40;;;;;;;1.27;68.04;97033.47;10379473;28;20044;-78
2023/02/26 02:12:35;;;;;;;0.60;0.30;;;;;;;1.26;68.10;97043.00;10365595;28;20050;-78
2023/02/26 02:18:36;;;;;;;0.60;0.30;;;;;;;1.18;67.82;97045.72;10406515;28;20045;-78
2023/02/26 02:24:03;;;;;;;0.50;0.20;;;;;;;1.06;68.34;97045.34;10377879;28;20095;-78
2023/02/26 02:29:46;;;;;;;0.57;0.28;;;;;;;1.10;67.94;97042.22;10405353;28;20045;-78
2023/02/26 02:35:39;;;;;;;0.80;0.25;;;;;;;1.15;68.29;97057.81;10391692;28;20045;-78
2023/02/26 02:41:26;;;;;;;1.58;0.40;;;;;;;1.15;68.17;97049.56;10363523;28;20416;-78
2023/02/26 02:46:48;;;;;;;2.00;0.35;;;;;;;1.18;68.44;97067.00;10372771;28;20060;-78
2023/02/26 02:52:48;;;;;;;1.00;0.40;;;;;;;1.19;68.58;97071.19;10391068;28;20104;-78
2023/02/26 02:58:14;;;;;;;0.93;0.30;;;;;;;1.15;68.64;97079.78;10401824;28;20501;-78
2023/02/26 03:03:57;;;;;;;0.55;0.30;;;;;;;1.18;67.66;97089.72;10390533;28;20410;-78
2023/02/26 03:09:18;;;;;;;0.77;0.30;;;;;;;1.17;67.99;97095.75;10390256;28;20037;-78
2023/02/26 03:14:40;;;;;;;1.35;0.40;;;;;;;1.19;68.56;97110.44;10376793;28;20041;-78
2023/02/26 03:20:31;;;;;;;1.35;0.30;;;;;;;1.09;68.43;97120.47;10363499;28;20052;-78
2023/02/26 03:26:12;;;;;;;1.60;0.25;;;;;;;1.19;68.25;97121.41;10363971;28;20139;-78
2023/02/26 03:31:46;;;;;;;1.35;0.30;;;;;;;1.23;68.29;97134.81;10378089;28;20061;-77
2023/02/26 03:37:46;;;;;;;1.60;0.40;;;;;;;1.24;68.25;97145.25;10388593;28;20046;-78
2023/02/26 03:43:20;;;;;;;1.00;0.30;;;;;;;1.23;68.02;97151.28;10375618;28;20037;-78
2023/02/26 03:48:42;;;;;;;1.00;0.30;;;;;;;1.27;68.38;97157.19;10390029;28;20042;-78
2023/02/26 03:54:07;;;;;;;1.35;0.40;;;;;;;1.23;67.93;97163.03;10375207;28;20049;-78
2023/02/26 03:59:32;;;;;;;0.63;0.30;;;;;;;1.24;68.07;97172.00;10376133;28;20045;-78
2023/02/26 04:05:18;;;;;;;1.10;0.35;;;;;;;1.29;67.89;97174.59;10394997;28;20079;-78
2023/02/26 04:10:43;;;;;;;0.60;0.30;;;;;;;1.23;67.96;97184.28;10374810;28;20100;-78
2023/02/26 04:16:04;;;;;;;0.63;0.22;;;;;;;1.20;68.09;97180.63;10361374;28;20057;-78
2023/02/26 04:21:25;;;;;;;0.70;0.40;;;;;;;1.20;67.70;97191.63;10374173;28;20045;-78
2023/02/26 04:26:46;;;;;;;0.90;0.47;;;;;;;1.18;67.68;97194.19;10387712;28;20380;-78
2023/02/26 04:32:08;;;;;;;2.28;0.43;;;;;;;1.16;67.92;97196.75;10360629;28;20046;-77
2023/02/26 04:37:30;;;;;;;0.77;0.30;;;;;;;1.20;67.76;97207.38;10360943;28;20041;-78
2023/02/26 04:42:51;;;;;;;0.80;0.30;;;;;;;1.16;67.51;97202.25;10360505;28;20042;-78
2023/02/26 04:48:17;;;;;;;1.02;0.38;;;;;;;1.17;67.69;97211.22;10374000;28;20038;-77
2023/02/26 04:53:38;;;;;;;0.88;0.30;;;;;;;1.07;67.87;97220.00;10373488;28;20041;-78
2023/02/26 04:59:00;;;;;;;1.08;0.30;;;;;;;1.09;67.11;97228.41;10373361;28;20045;-78
2023/02/26 05:04:23;;;;;;;0.85;0.30;;;;;;;1.12;67.46;97230.06;10374060;28;20060;-77
2023/02/26 05:09:47;;;;;;;;;;;;;;;1.10;67.62;97240.16;10360936;28;20037;-78
2023/02/26 05:15:08;;;;;;;0.73;0.30;;;;;;;1.00;67.57;97245.41;10370589;28;20362;-77
2023/02/26 05:20:30;;;;;;;0.55;0.17;;;;;;;0.96;67.65;97247.75;10371146;28;20045;-78
2023/02/26 05:25:54;;;;;;;3.33;0.30;;;;;;;0.88;67.72;97251.78;10357203;28;20046;-78
2023/02/26 05:31:15;;;;;;;0.40;0.30;;;;;;;0.84;67.51;97260.34;10371960;28;20471;-78
2023/02/26 05:36:36;;;;;;;0.77;0.30;;;;;;;0.89;67.15;97261.47;10371549;28;20057;-78
2023/02/26 05:41:57;;;;;;;0.85;0.30;;;;;;;0.82;67.25;97277.38;10370876;28;20052;-78
2023/02/26 05:47:19;;;;;;;0.77;0.20;;;;;;;0.77;67.84;97285.75;10372376;28;20050;-78
2023/02/26 05:52:40;;;;;;;0.70;0.30;;;;;;;0.66;67.55;97306.00;10372539;28;20045;-79
2023/02/26 05:58:01;;;;;;;1.55;0.40;;;;;;;0.72;67.47;97303.13;10385870;28;20061;-79
2023/02/26 06:03:22;;;;;;;0.98;0.30;;;;;;;0.92;67.79;97313.34;10406200;28;20493;-78
2023/02/26 06:08:44;;;;;;;0.90;0.50;;;;;;;1.02;67.49;97330.81;10378495;28;20041;-78
2023/02/26 06:14:05;;;;;;;2.10;0.50;;;;;;;1.10;67.27;97336.38;10383542;28;20041;-78
2023/02/26 06:19:27;;;;;;;1.83;0.30;;;;;;;1.10;67.46;97350.84;10351544;28;20483;-79
2023/02/26 06:24:48;;;;;;;0.90;0.30;;;;;;;1.12;67.15;97372.28;10364644;28;20069;-79
2023/02/26 06:30:10;;;;;;;0.93;0.30;;;;;;;1.15;67.06;97384.94;10423115;28;20120;-77
2023/02/26 06:35:31;;;;;;;1.85;0.30;;;;;;;1.17;66.67;97387.91;10382460;28;20044;-78
2023/02/26 06:40:52;;;;;;;1.35;0.40;;;;;;;1.25;67.17;97407.19;10374173;28;20411;-78
2023/02/26 06:46:13;;;;;;;1.35;0.40;;;;;;;1.35;67.03;97411.69;10375878;28;20038;-78
2023/02/26 06:51:35;;;;;;;1.73;0.70;;;;;;;1.54;67.15;97411.41;10388768;28;20116;-78
2023/02/26 06:56:56;;;;;;;0.95;0.40;;;;;;;1.65;66.82;97424.16;10388823;28;20120;-78
2023/02/26 07:02:19;;;;;;;1.27;0.45;;;;;;;1.84;66.74;97438.38;10388680;28;20442;-77
2023/02/26 07:07:40;;;;;;;1.40;0.40;;;;;;;1.94;66.68;97441.34;10371749;28;20121;-78
2023/02/26 07:13:01;;;;;;;2.17;0.90;;;;;;;2.25;65.65;97453.22;10389098;28;20040;-80
2023/02/26 07:18:22;;;;;;;1.10;0.40;;;;;;;2.50;64.93;97456.94;10387294;28;20053;-80
2023/02/26 07:23:42;;;;;;;1.17;0.50;;;;;;;2.58;64.58;97471.50;10389783;28;20045;-81
2023/02/26 07:29:03;;;;;;;1.25;0.45;;;;;;;2.70;63.65;97484.94;10403525;28;20096;-80
2023/02/26 07:34:24;;;;;;;1.50;0.35;;;;;;;3.22;64.07;97491.06;10389328;28;20088;-79
2023/02/26 07:39:45;;;;;;;2.05;0.50;;;;;;;3.17;63.02;97498.97;10391446;28;20042;-81
2023/02/26 07:45:07;;;;;;;1.48;0.40;;;;;;;3.11;61.18;97503.94;10369957;28;20045;-79
2023/02/26 07:50:29;;;;;;;1.33;0.60;;;;;;;2.89;61.81;97504.63;10416452;28;20107;-78
2023/02/26 07:55:50;;;;;;;2.25;0.57;;;;;;;2.80;62.74;97516.22;10383128;28;20500;-80
2023/02/26 08:01:11;;;;;;;2.72;0.50;;;;;;;2.83;62.60;97523.38;10393944;28;20045;-80
2023/02/26 08:06:32;;;;;;;3.80;0.60;;;;;;;2.88;62.09;97530.72;10388377;28;20045;-80
2023/02/26 08:11:53;;;;;;;2.42;0.60;;;;;;;3.09;62.36;97538.88;10388143;28;20468;-80
2023/02/26 08:17:13;;;;;;;1.88;0.57;;;;;;;3.59;62.56;97540.00;10374429;28;20050;-80
2023/02/26 08:22:34;;;;;;;2.58;0.68;;;;;;;4.13;61.58;97542.69;10387493;28;20068;-80
2023/02/26 08:27:57;;;;;;;3.83;0.63;;;;;;;4.01;60.87;97558.94;10387918;28;20038;-79
2023/02/26 08:33:18;;;;;;;2.65;0.55;;;;;;;4.42;58.94;97559.75;10373746;28;20041;-79
2023/02/26 08:38:39;;;;;;;3.17;0.80;;;;;;;4.97;54.92;97572.78;10370219;28;20418;-80
2023/02/26 08:44:00;;;;;;;2.33;0.80;;;;;;;5.23;56.26;97580.59;10387210;28;20049;-78
2023/02/26 08:49:21;;;;;;;2.22;0.65;;;;;;;4.84;58.00;97590.38;10387415;28;20475;-77
2023/02/26 08:54:42;;;;;;;2.65;0.52;;;;;;;4.12;56.75;97596.47;10386829;28;20395;-78
2023/02/26 09:00:04;;;;;;;2.40;0.60;;;;;;;4.00;55.71;97604.41;10400817;28;20048;-77
2023/02/26 09:05:25;;;;;;;1.15;0.30;;;;;;;3.99;56.04;97609.19;10400411;28;20057;-77
2023/02/26 09:10:46;;;;;;;1.23;0.40;;;;;;;4.09;56.55;97616.94;10372951;28;20041;-78
2023/02/26 09:16:07;;;;;;;2.13;0.40;;;;;;;4.41;55.18;97619.81;10386875;28;20037;-78
2023/02/26 09:21:28;;;;;;;2.00;0.63;;;;;;;4.60;56.04;97622.91;10386692;28;20045;-77
2023/02/26 09:26:49;;;;;;;2.25;0.70;;;;;;;5.21;54.65;97632.25;10373072;28;20052;-77
2023/02/26 09:32:10;;;;;;;3.42;0.68;;;;;;;7.37;54.88;97645.06;10386673;28;20087;-78
2023/02/26 09:37:31;;;;;;;2.72;0.65;;;;;;;9.27;50.93;97655.03;10397014;28;20037;-77
2023/02/26 09:43:32;;;;;;;2.40;0.50;;;;;;;12.09;48.63;97658.09;10402779;28;20167;-79
2023/02/26 09:49:01;;;;;;;1.33;0.50;;;;;;;11.25;46.04;97662.66;10404690;28;20046;-79
2023/02/26 09:54:23;;;;;;;4.45;0.50;;;;;;;12.45;40.52;97667.94;10403791;28;20042;-78
2023/02/26 09:59:44;;;;;;;2.03;0.50;;;;;;;9.62;41.56;97679.72;10389985;28;20069;-78
2023/02/26 10:05:45;;;;;;;1.67;0.50;;;;;;;7.04;44.60;97689.69;10400421;28;20049;-78
2023/02/26 10:11:57;;;;;;;4.63;0.50;;;;;;;6.84;47.80;97683.25;10412537;28;20049;-77
2023/02/26 10:17:26;;;;;;;2.88;0.55;;;;;;;7.47;48.09;97687.53;10413303;28;20038;-78
2023/02/26 10:23:11;;;;;;;1.60;0.70;;;;;;;8.90;43.59;97693.44;10397415;28;20045;-78
2023/02/26 10:29:09;;;;;;;1.77;0.60;;;;;;;8.06;43.72;97708.72;10396240;28;20494;-77
2023/02/26 10:34:42;;;;;;;2.72;0.70;;;;;;;6.96;45.93;97718.88;10423564;28;20048;-79
2023/02/26 10:40:09;;;;;;;2.28;0.60;;;;;;;6.10;46.93;97722.22;10446487;28;20106;-78
2023/02/26 10:45:51;;;;;;;2.55;0.55;;;;;;;5.65;47.85;97729.47;10432222;28;20498;-78
2023/02/26 10:51:17;;;;;;;2.40;0.55;;;;;;;5.05;48.45;97733.97;10434534;28;20108;-79
2023/02/26 10:56:38;;;;;;;1.42;0.60;;;;;;;4.31;50.63;97730.19;10432539;28;20474;-77
2023/02/26 11:01:58;;;;;;;3.20;0.82;;;;;;;4.95;50.35;97744.13;10431437;28;20045;-80
2023/02/26 11:07:19;;;;;;;1.95;0.55;;;;;;;6.47;49.09;97746.13;10417954;28;20060;-78
2023/02/26 11:12:40;;;;;;;1.63;0.73;;;;;;;6.64;48.03;97745.41;10431500;28;20057;-77
2023/02/26 11:18:01;;;;;;;1.58;0.43;;;;;;;6.89;47.78;97748.88;10431188;28;20075;-77
2023/02/26 11:23:23;;;;;;;3.55;0.73;;;;;;;7.71;47.04;97750.53;10422618;28;20411;-78
2023/02/26 11:28:45;;;;;;;1.77;0.60;;;;;;;7.35;46.27;97756.72;10389587;28;20435;-77
2023/02/26 11:34:08;;;;;;;2.53;0.68;;;;;;;6.59;46.99;97752.69;10415143;28;20045;-77
2023/02/26 11:39:32;;;;;;;1.47;0.50;;;;;;;5.76;47.96;97756.72;10387909;28;20458;-77
2023/02/26 11:44:53;;;;;;;1.20;0.60;;;;;;;5.03;50.10;97764.22;10378581;28;20037;-76
2023/02/26 11:50:21;;;;;;;1.23;0.40;;;;;;;4.87;49.48;97771.81;10388932;28;20037;-78
2023/02/26 11:55:46;;;;;;;1.52;0.40;;;;;;;4.39;49.83;97776.44;10384645;28;20076;-77
2023/02/26 12:01:09;;;;;;;0.80;0.30;;;;;;;4.34;50.16;97769.06;10432762;28;20053;-77
2023/02/26 12:06:30;;;;;;;2.20;0.50;;;;;;;4.40;51.46;97772.38;10419602;28;20045;-76
2023/02/26 12:12:16;;;;;;;2.15;0.70;;;;;;;4.80;51.89;97775.31;10361848;28;20049;-76
2023/02/26 12:17:58;;;;;;;2.60;0.50;;;;;;;5.17;51.17;97782.81;10412348;28;20061;-76
2023/02/26 12:23:52;;;;;;;0.98;0.50;;;;;;;4.93;51.36;97785.44;10377707;28;20103;-76
2023/02/26 12:29:28;;;;;;;1.27;0.40;;;;;;;4.52;51.21;97787.31;10401939;28;20042;-76
2023/02/26 12:35:16;;;;;;;2.05;0.50;;;;;;;4.30;52.32;97783.97;10413064;28;20106;-79
2023/02/26 12:40:47;;;;;;;1.42;0.70;;;;;;;4.82;51.14;97787.28;10375841;28;20041;-79
2023/02/26 12:46:36;;;;;;;1.23;0.50;;;;;;;5.01;50.34;97786.16;10392284;28;20518;-76
2023/02/26 12:52:30;;;;;;;1.95;0.50;;;;;;;5.00;51.05;97790.22;10402093;28;20045;-76
2023/02/26 12:58:00;;;;;;;;;;;;;;;4.88;50.61;97801.66;10401213;28;20096;-77
2023/02/26 13:03:27;;;;;;;2.03;0.63;;;;;;;4.61;51.00;97808.88;10412172;28;19921;-79
2023/02/26 13:09:01;;;;;;;1.55;0.57;;;;;;;4.65;50.90;97806.50;10420236;28;20049;-79
2023/02/26 13:14:40;;;;;;;1.88;0.47;;;;;;;4.60;50.96;97813.66;10416200;28;20121;-80
2023/02/26 13:20:14;;;;;;;2.00;0.50;;;;;;;4.79;51.50;97818.81;10425401;28;20037;-79
2023/02/26 13:25:51;;;;;;;1.85;0.68;;;;;;;4.76;50.67;97811.63;10409369;28;20037;-78
2023/02/26 13:31:22;;;;;;;1.95;0.52;;;;;;;4.36;50.99;97830.78;10420727;28;20056;-80
2023/02/26 13:36:47;;;;;;;2.03;0.70;;;;;;;4.11;51.63;97827.78;10433832;28;20110;-80
2023/02/26 13:42:35;;;;;;;4.05;0.52;;;;;;;3.82;51.62;97829.91;10413874;28;20384;-80
2023/02/26 13:48:11;;;;;;;2.75;0.70;;;;;;;4.08;51.89;97823.38;10413967;28;20044;-80
2023/02/26 13:53:32;;;;;;;3.17;1.13;;;;;;;5.01;51.75;97824.88;10436631;28;20616;-80
2023/02/26 13:58:59;;;;;;;2.35;0.70;;;;;;;5.35;50.42;97818.94;10412107;28;20502;-78
2023/02/26 14:04:23;;;;;;;1.90;0.60;;;;;;;4.85;50.81;97832.47;10413194;28;20059;-80
2023/02/26 14:10:00;;;;;;;2.40;0.88;;;;;;;4.75;50.73;97837.09;10406286;28;20041;-80
2023/02/26 14:15:39;;;;;;;3.95;0.60;;;;;;;4.49;51.02;97835.41;10391036;28;20388;-80
2023/02/26 14:21:25;;;;;;;2.95;0.68;;;;;;;4.44;50.77;97841.84;10388908;28;20074;-78
2023/02/26 14:27:02;;;;;;;2.55;0.55;;;;;;;4.40;50.90;97842.22;10422167;28;20083;-78
2023/02/26 14:32:33;;;;;;;2.80;0.60;;;;;;;4.19;51.48;97847.88;10390605;28;20678;-77
2023/02/26 14:38:06;;;;;;;2.78;0.60;;;;;;;4.07;51.01;97848.78;10390222;28;20484;-77
2023/02/26 14:43:35;;;;;;;1.90;0.40;;;;;;;3.88;51.88;97846.34;10378142;28;20045;-77
2023/02/26 14:48:56;;;;;;;2.58;0.60;;;;;;;3.81;51.21;97844.28;10391718;28;20368;-77
2023/02/26 14:54:36;;;;;;;1.17;0.40;;;;;;;3.62;51.75;97852.84;10405023;28;20060;-77
2023/02/26 14:59:57;;;;;;;2.25;0.75;;;;;;;3.52;52.42;97846.34;10416515;28;20129;-76
2023/02/26 15:05:40;;;;;;;2.75;0.50;;;;;;;3.38;52.58;97865.06;10431376;28;20065;-76
2023/02/26 15:11:26;;;;;;;2.33;0.53;;;;;;;3.55;51.96;97887.41;10432632;28;20044;-77
2023/02/26 15:16:56;;;;;;;1.75;0.68;;;;;;;3.55;52.13;97887.41;10425858;28;20068;-78
2023/02/26 15:22:24;;;;;;;1.90;0.88;;;;;;;3.64;52.68;97892.41;10407186;28;20049;-77
2023/02/26 15:27:45;;;;;;;3.30;0.52;;;;;;;4.00;51.92;97906.22;10414433;28;20483;-77
2023/02/26 15:33:11;;;;;;;2.88;0.70;;;;;;;4.17;52.06;97902.97;10377004;28;20041;-77
2023/02/26 15:38:49;;;;;;;2.45;0.60;;;;;;;4.09;51.91;97913.25;10384288;28;20046;-78
2023/02/26 15:44:14;;;;;;;3.15;0.50;;;;;;;3.94;51.21;97918.69;10375590;28;20049;-77
2023/02/26 15:49:40;;;;;;;1.55;0.60;;;;;;;3.49;51.84;97919.94;10375182;28;20042;-78
2023/02/26 15:55:03;;;;;;;2.33;0.63;;;;;;;3.25;51.67;97920.31;10375031;28;20038;-78
2023/02/26 16:00:24;;;;;;;3.03;0.70;;;;;;;3.05;52.33;97925.34;10388441;28;20073;-78
2023/02/26 16:05:45;;;;;;;3.10;0.80;;;;;;;2.84;53.53;97932.88;10374551;28;20054;-77
2023/02/26 16:11:06;;;;;;;1.30;0.60;;;;;;;2.72;52.94;97942.69;10387998;28;20048;-77
2023/02/26 16:16:34;;;;;;;2.15;0.75;;;;;;;2.85;52.86;97956.41;10388195;28;20045;-78
2023/02/26 16:21:55;;;;;;;2.67;0.70;;;;;;;2.90;53.34;97969.34;10401342;28;20041;-77
2023/02/26 16:27:16;;;;;;;3.08;0.73;;;;;;;2.88;53.00;97980.16;10379137;28;20049;-78
2023/02/26 16:32:37;;;;;;;6.28;1.05;;;;;;;2.75;53.52;97991.22;10414816;28;20044;-77
2023/02/26 16:37:59;;;;;;;3.28;0.75;;;;;;;2.57;53.37;97992.88;10414678;28;20043;-77
2023/02/26 16:43:41;;;;;;;4.95;0.63;;;;;;;2.46;53.09;98007.66;10427880;28;20072;-77
2023/02/26 16:49:06;;;;;;;6.07;1.10;;;;;;;2.35;53.47;98020.91;10415093;28;20045;-77
2023/02/26 16:54:31;;;;;;;5.47;1.30;;;;;;;2.32;54.48;98036.50;10414461;28;20048;-77
2023/02/26 16:59:54;;;;;;;2.90;0.80;;;;;;;2.34;54.78;98044.97;10413848;28;20095;-77
2023/02/26 17:05:27;;;;;;;5.20;0.88;;;;;;;2.37;55.98;98054.19;10400863;28;20061;-77
2023/02/26 17:10:51;;;;;;;3.40;0.93;;;;;;;2.29;55.97;98065.09;10428750;28;20079;-77
2023/02/26 17:16:12;;;;;;;3.33;1.30;;;;;;;2.25;55.81;98065.44;10415786;28;20045;-79
2023/02/26 17:21:33;;;;;;;5.07;1.15;;;;;;;2.19;55.71;98080.56;10343470;28;20049;-80
2023/02/26 17:26:54;;;;;;;2.58;1.15;;;;;;;2.16;56.47;98090.63;10331765;28;20411;-79
2023/02/26 17:32:21;;;;;;;3.15;1.48;;;;;;;2.18;56.64;98104.63;10330182;28;20062;-79
2023/02/26 17:37:45;;;;;;;5.70;2.08;;;;;;;2.00;56.34;98108.22;10346896;28;20061;-80
2023/02/26 17:43:08;;;;;;;5.60;1.55;;;;;;;1.86;56.50;98126.00;10332383;28;20416;-79
2023/02/26 17:48:29;;;;;;;3.05;1.30;;;;;;;1.77;57.15;98129.16;10346225;28;20045;-79
2023/02/26 17:53:50;;;;;;;3.13;1.48;;;;;;;1.71;57.33;98134.72;10332489;28;20041;-79
2023/02/26 17:59:11;;;;;;;2.67;1.27;;;;;;;1.70;57.24;98150.50;10365265;28;20475;-79
2023/02/26 18:04:33;;;;;;;3.75;1.35;;;;;;;1.81;57.27;98140.56;10376623;28;20080;-79
2023/02/26 18:09:54;;;;;;;5.10;1.63;;;;;;;1.81;57.28;98151.59;10366113;28;20053;-80
2023/02/26 18:15:15;;;;;;;5.18;1.33;;;;;;;1.79;58.43;98163.13;10379334;28;20045;-79
2023/02/26 18:20:36;;;;;;;4.97;1.30;;;;;;;1.84;58.26;98165.06;10378869;28;20041;-78
2023/02/26 18:25:56;;;;;;;4.78;1.20;;;;;;;1.79;59.47;98157.63;10378701;28;20042;-78
2023/02/26 18:31:18;;;;;;;3.85;1.48;;;;;;;1.82;58.54;98170.31;10364652;28;20483;-79
2023/02/26 18:36:40;;;;;;;4.32;1.45;;;;;;;1.88;58.55;98162.72;10392148;28;20487;-78
2023/02/26 18:42:01;;;;;;;4.15;1.30;;;;;;;1.85;59.13;98169.28;10377921;28;20103;-79
2023/02/26 18:47:21;;;;;;;5.00;1.60;;;;;;;1.77;59.00;98179.44;10378141;28;20061;-79
2023/02/26 18:52:42;;;;;;;3.00;1.35;;;;;;;1.80;59.31;98186.63;10377396;28;20041;-79
2023/02/26 18:58:03;;;;;;;5.13;1.95;;;;;;;1.76;59.94;98186.19;10395400;28;20442;-79
2023/02/26 19:03:25;;;;;;;5.28;2.10;;;;;;;1.69;59.70;98190.31;10391031;28;20111;-78
2023/02/26 19:08:46;;;;;;;4.85;1.92;;;;;;;1.69;60.16;98197.81;10390110;28;20049;-78
2023/02/26 19:14:07;;;;;;;5.07;1.65;;;;;;;1.67;59.84;98197.59;10408920;28;20068;-78
2023/02/26 19:19:28;;;;;;;4.97;1.70;;;;;;;1.55;59.94;98188.03;10417631;28;20048;-78
2023/02/26 19:24:49;;;;;;;5.47;1.90;;;;;;;1.47;60.18;98198.16;10417423;28;20080;-78
2023/02/26 19:30:10;;;;;;;5.32;2.10;;;;;;;1.42;60.39;98203.19;10430870;28;20048;-78
2023/02/26 19:35:31;;;;;;;4.28;1.90;;;;;;;1.22;61.23;98209.22;10430660;28;20041;-78
2023/02/26 19:40:51;;;;;;;3.50;1.80;;;;;;;1.04;62.87;98223.72;10416880;28;20060;-78
2023/02/26 19:46:13;;;;;;;4.18;1.60;;;;;;;1.03;61.37;98233.97;10402694;28;20056;-79
2023/02/26 19:51:34;;;;;;;4.85;1.60;;;;;;;1.02;61.48;98229.00;10429725;28;20048;-78
2023/02/26 19:56:54;;;;;;;2.90;1.00;;;;;;;1.13;60.91;98232.34;10415936;28;20372;-78
2023/02/26 20:02:15;;;;;;;4.47;1.15;;;;;;;1.24;62.12;98231.44;10402209;28;20049;-78
2023/02/26 20:07:36;;;;;;;3.38;1.48;;;;;;;1.29;61.85;98254.66;10415748;28;20045;-78
2023/02/26 20:12:59;;;;;;;5.18;1.15;;;;;;;1.20;62.06;98258.50;10415201;28;20075;-78
2023/02/26 20:18:20;;;;;;;4.83;1.20;;;;;;;1.14;61.48;98255.81;10415175;28;20068;-78
2023/02/26 20:23:41;;;;;;;3.67;1.20;;;;;;;1.12;62.16;98274.09;10391498;28;20072;-80
2023/02/26 20:29:02;;;;;;;4.45;1.13;;;;;;;1.14;62.43;98266.06;10374099;28;20046;-79
2023/02/26 20:34:23;;;;;;;2.80;1.10;;;;;;;1.18;62.33;98272.03;10374093;28;20037;-80
2023/02/26 20:39:45;;;;;;;4.80;1.30;;;;;;;1.20;63.50;98274.28;10358146;28;20054;-80
2023/02/26 20:45:06;;;;;;;3.63;1.10;;;;;;;1.22;62.59;98282.75;10373695;28;20049;-80
2023/02/26 20:50:27;;;;;;;2.75;1.30;;;;;;;1.18;63.14;98299.53;10373791;28;20052;-80
2023/02/26 20:55:48;;;;;;;3.90;1.17;;;;;;;1.14;62.95;98293.56;10387019;28;20056;-80
2023/02/26 21:01:09;;;;;;;3.08;1.13;;;;;;;1.07;63.77;98302.44;10386754;28;20056;-79
2023/02/26 21:06:31;;;;;;;4.38;1.70;;;;;;;1.08;63.23;98301.91;10373166;28;20144;-79
2023/02/26 21:11:52;;;;;;;4.85;1.95;;;;;;;1.12;63.58;98307.09;10373101;28;20041;-80
2023/02/26 21:17:13;;;;;;;6.60;2.25;;;;;;;1.18;64.11;98321.53;10399877;28;20049;-80
2023/02/26 21:22:35;;;;;;;6.07;2.45;;;;;;;1.20;63.85;98323.78;10344827;28;20487;-80
2023/02/26 21:27:56;;;;;;;5.70;2.25;;;;;;;1.21;63.40;98328.75;10364884;28;20115;-79
2023/02/26 21:33:17;;;;;;;6.32;2.25;;;;;;;1.17;63.76;98336.56;10393552;28;20038;-80
2023/02/26 21:38:39;;;;;;;5.57;2.17;;;;;;;1.16;63.59;98329.56;10407835;28;20073;-80
2023/02/26 21:44:00;;;;;;;4.65;2.33;;;;;;;1.11;63.28;98331.09;10380355;28;20076;-79
2023/02/26 21:49:20;;;;;;;6.25;2.20;;;;;;;0.82;63.74;98329.16;10393664;28;20072;-80
2023/02/26 21:54:41;;;;;;;6.60;2.22;;;;;;;0.71;64.06;98330.00;10393548;28;20372;-80
2023/02/26 22:00:05;;;;;;;3.85;1.77;;;;;;;0.69;64.30;98327.03;10407028;28;20045;-79
2023/02/26 22:05:31;;;;;;;4.60;2.15;;;;;;;0.63;64.77;98334.59;10407378;28;20050;-79
2023/02/26 22:10:52;;;;;;;7.15;2.78;;;;;;;0.63;65.21;98339.34;10379668;28;20103;-79
2023/02/26 22:16:14;;;;;;;8.27;2.15;;;;;;;0.61;65.36;98339.09;10379574;28;20052;-79
2023/02/26 22:21:38;;;;;;;4.82;2.05;;;;;;;0.50;66.52;98348.94;10395087;28;20054;-80
2023/02/26 22:27:03;;;;;;;2.97;1.67;;;;;;;0.44;65.97;98350.22;10403742;28;20412;-79
2023/02/26 22:32:28;;;;;;;6.07;2.10;;;;;;;0.51;66.05;98371.66;10394154;28;20060;-80
2023/02/26 22:37:55;;;;;;;5.07;1.95;;;;;;;0.58;66.21;98371.09;10382163;28;20058;-79
2023/02/26 22:43:15;;;;;;;3.60;1.55;;;;;;;0.57;66.12;98369.59;10377456;28;20053;-80
2023/02/26 22:48:36;;;;;;;4.03;1.80;;;;;;;0.61;66.43;98374.81;10375925;28;20476;-79
2023/02/26 22:54:01;;;;;;;6.57;2.08;;;;;;;0.71;66.47;98371.25;10377533;28;20127;-79
2023/02/26 22:59:21;;;;;;;5.32;1.75;;;;;;;0.73;66.96;98381.72;10391496;28;20045;-79
2023/02/26 23:04:42;;;;;;;8.70;2.20;;;;;;;0.70;65.85;98378.00;10363808;28;20053;-79
2023/02/26 23:10:04;;;;;;;4.63;1.80;;;;;;;0.71;66.11;98373.25;10363569;28;20041;-80
2023/02/26 23:15:25;;;;;;;4.70;1.50;;;;;;;0.65;66.85;98376.03;10390863;28;20455;-79
2023/02/26 23:20:46;;;;;;;3.58;1.80;;;;;;;0.65;66.79;98381.53;10376704;28;20038;-79
2023/02/26 23:26:07;;;;;;;6.55;1.67;;;;;;;0.65;66.58;98376.03;10390190;28;20037;-79
2023/02/26 23:31:28;;;;;;;4.25;1.85;;;;;;;0.65;66.56;98386.28;10401147;28;20040;-79
2023/02/26 23:36:49;;;;;;;4.68;1.70;;;;;;;0.61;66.36;98380.31;10417328;28;20048;-79
2023/02/26 23:42:10;;;;;;;4.47;1.80;;;;;;;0.46;66.97;98375.91;10403086;28;20102;-79
2023/02/26 23:47:31;;;;;;;4.00;1.50;;;;;;;0.25;66.60;98370.09;10416612;28;20394;-79
2023/02/26 23:52:52;;;;;;;4.85;1.58;;;;;;;0.22;66.26;98382.09;10415308;28;20075;-79
2023/02/26 23:58:13;;;;;;;5.20;1.65;;;;;;;0.09;66.88;98370.94;10415916;28;20380;-79
